Smitwijs London — PCBI — position and weather

sailwx.info

Track history (hours):
 
Tides and Currents Weather Stations Pressure Air Temp Water Temp Dewpoint Dewpoint Depression Visibility Wind Speed Wind Dir Waves Ship Positions

Smitwijs London

Last reported at 2015-May-30 20:33 UTC. Time now 2015-May-30 20:43 UTC.
Position N 51°20' E 003°49'.

Length 75 m; beam 16 m.

Type: Tug. MMSI: 244098956.

Date/timePositionNaut miles runAvg speedWind from/ knotsBaromVisibWave heightAir tempDewpointWater temp
2015-May-30 20:33N 51°20' E 003°49'0 0.0
2015-May-30 19:33N 51°20' E 003°49'0 0.0
2015-May-30 18:33N 51°20' E 003°49'0 0.0
2015-May-30 17:33N 51°20' E 003°49'0 0.0
2015-May-30 16:33N 51°20' E 003°49'0 0.0
2015-May-30 15:33N 51°20' E 003°49'0 0.0
2015-May-30 14:33N 51°20' E 003°49'0 0.0
2015-May-30 13:33N 51°20' E 003°49'2 2.5
2015-May-30 12:33N 51°18' E 003°50'7 6.6
2015-May-30 11:33N 51°11' E 003°48'1 0.6
2015-May-30 10:34N 51°11' E 003°48'6 6.2
2015-May-30 09:33N 51°17' E 003°50'3 3.0
2015-May-30 08:32N 51°20' E 003°49'3 2.9
2015-May-30 07:33N 51°22' E 003°46'2 2.5
2015-May-30 06:33N 51°20' E 003°49'0 0.0
2015-May-30 05:33N 51°20' E 003°49'0 0.0
2015-May-30 04:33N 51°20' E 003°49'0 0.0
2015-May-30 03:33N 51°20' E 003°49'0 0.0
2015-May-30 02:33N 51°20' E 003°49'0 0.0
2015-May-30 01:33N 51°20' E 003°49'0 0.0
2015-May-30 00:33N 51°20' E 003°49'0 0.0
2015-May-29 23:33N 51°20' E 003°49'0 0.0
2015-May-29 22:33N 51°20' E 003°49'0 0.0
2015-May-29 21:33N 51°20' E 003°49'0 0.0
2015-May-29 20:33N 51°20' E 003°49'0 0.0
2015-May-29 19:32N 51°20' E 003°49'0 0.0
2015-May-29 18:33N 51°20' E 003°49'0 0.0
2015-May-29 17:33N 51°20' E 003°49'0 0.0
2015-May-29 16:33N 51°20' E 003°49'0 0.0
2015-May-29 15:33N 51°20' E 003°49'1 0.5
2015-May-29 14:31N 51°20' E 003°49'0 0.2
2015-May-29 13:33N 51°20' E 003°49'4 4.5
2015-May-29 12:34N 51°15' E 003°50'9 8.9
2015-May-29 11:33N 51°07' E 003°45'1 1.1
2015-May-29 10:33N 51°06' E 003°44'2 1.6
2015-May-29 09:33N 51°07' E 003°45'5 4.5
2015-May-29 08:33N 51°11' E 003°48'7 6.5
2015-May-29 07:33N 51°18' E 003°50'2 2.4
2015-May-29 06:33N 51°20' E 003°49'5 5.1
2015-May-29 05:33N 51°23' E 003°43'4 4.5
2015-May-29 04:33N 51°28' E 003°41'0 0.1
2015-May-29 03:33N 51°28' E 003°40'0 0.0
2015-May-29 02:33N 51°28' E 003°40'0 0.0
2015-May-29 01:33N 51°28' E 003°40'0 0.0
2015-May-29 00:33N 51°28' E 003°40'0 0.0
2015-May-28 23:33N 51°28' E 003°40'0 0.0
2015-May-28 22:33N 51°28' E 003°40'0 0.0
2015-May-28 21:33N 51°28' E 003°40'1 1.1
2015-May-28 20:33N 51°27' E 003°42'0 0.2
2015-May-28 19:33N 51°27' E 003°42'1 0.9
2015-May-28 18:33N 51°28' E 003°40'0 0.0
2015-May-28 17:33N 51°28' E 003°40'0 0.0
2015-May-28 16:33N 51°28' E 003°40'0 0.0
2015-May-28 15:33N 51°28' E 003°40'0 0.0
2015-May-28 14:33N 51°28' E 003°40'0 0.0
2015-May-28 13:33N 51°28' E 003°40'0 0.0
2015-May-28 12:33N 51°28' E 003°40'0 0.0
2015-May-28 11:33N 51°28' E 003°40'0 0.0
2015-May-28 10:33N 51°28' E 003°40'0 0.0
2015-May-28 09:33N 51°28' E 003°40'0 0.0
2015-May-28 08:33N 51°28' E 003°40'0 0.0
2015-May-28 07:33N 51°28' E 003°40'0 0.0
2015-May-28 06:33N 51°28' E 003°40'1 1.4
2015-May-28 05:33N 51°29' E 003°42'1 1.4
2015-May-28 04:33N 51°28' E 003°40'0 0.0
2015-May-28 03:33N 51°28' E 003°40'0 0.0
2015-May-28 02:33N 51°28' E 003°40'0 0.0
2015-May-28 01:33N 51°28' E 003°40'0 0.0
2015-May-28 00:33N 51°28' E 003°40'0 0.0
2015-May-27 23:33N 51°28' E 003°40'0 0.0
2015-May-27 22:33N 51°28' E 003°40'0 0.0
2015-May-27 21:33N 51°28' E 003°40'0 0.0
2015-May-27 20:33N 51°28' E 003°40'0 0.0
2015-May-27 19:33N 51°28' E 003°40'0 0.0
2015-May-27 18:33N 51°28' E 003°40'0 0.0
2015-May-27 17:33N 51°28' E 003°40'6 6.0
2015-May-27 16:33N 51°28' E 003°31'2 2.3
2015-May-27 15:33N 51°30' E 003°29'5 5.5
2015-May-27 14:33N 51°26' E 003°35'5 5.2
2015-May-27 13:33N 51°28' E 003°43'1 1.0
2015-May-27 12:33N 51°28' E 003°41'1 0.6
2015-May-27 11:33N 51°28' E 003°40'0 0.0
2015-May-27 10:33N 51°28' E 003°40'0 0.0
2015-May-27 09:33N 51°28' E 003°40'0 0.0
2015-May-27 08:33N 51°28' E 003°40'0 0.0
2015-May-27 07:33N 51°28' E 003°40'0 0.0
2015-May-27 06:33N 51°28' E 003°40'0 0.0
2015-May-27 05:33N 51°28' E 003°40'0 0.0
2015-May-27 04:33N 51°28' E 003°40'0 0.0
2015-May-27 03:33N 51°28' E 003°40'0 0.0
2015-May-27 02:33N 51°28' E 003°40'0 0.0
2015-May-27 01:33N 51°28' E 003°40'0 0.0
2015-May-27 00:33N 51°28' E 003°40'0 0.0
2015-May-26 23:33N 51°28' E 003°40'2 1.5
2015-May-26 22:34N 51°29' E 003°42'3 3.1
2015-May-26 21:33N 51°26' E 003°39'2 1.6
2015-May-26 20:33N 51°28' E 003°40'1 1.5
2015-May-26 19:33N 51°27' E 003°42'3 2.9
2015-May-26 18:33N 51°24' E 003°43'6 5.9
2015-May-26 17:33N 51°21' E 003°51'1 0.6
2015-May-26 16:32N 51°21' E 003°52'2 1.9
2015-May-26 15:33N 51°20' E 003°49'0 0.0
2015-May-26 14:33N 51°20' E 003°49'0 0.0
2015-May-26 13:33N 51°20' E 003°49'0 0.0
2015-May-26 12:33N 51°20' E 003°49'0 0.0
2015-May-26 11:33N 51°20' E 003°49'0 0.0
2015-May-26 10:33N 51°20' E 003°49'2 1.8
2015-May-26 09:34N 51°21' E 003°52'1 0.5
2015-May-26 08:33N 51°20' E 003°51'1 1.4
2015-May-26 07:33N 51°20' E 003°49'1 1.2
2015-May-26 06:33N 51°19' E 003°50'2 1.6
2015-May-26 05:33N 51°20' E 003°49'0 0.0
2015-May-26 04:33N 51°20' E 003°49'0 0.0
2015-May-26 03:33N 51°20' E 003°49'0 0.0
2015-May-26 02:33N 51°20' E 003°49'0 0.0
2015-May-26 01:33N 51°20' E 003°49'0 0.0
2015-May-26 00:33N 51°20' E 003°49'0 0.0
2015-May-25 23:33N 51°20' E 003°49'0 0.0
2015-May-25 22:33N 51°20' E 003°49'0 0.0
2015-May-25 21:33N 51°20' E 003°49'0 0.0
2015-May-25 20:33N 51°20' E 003°49'0 0.0
2015-May-25 19:33N 51°20' E 003°49'0 0.0
2015-May-25 18:33N 51°20' E 003°49'0 0.0
2015-May-25 17:33N 51°20' E 003°49'0 0.0
2015-May-25 16:33N 51°20' E 003°49'0 0.0
2015-May-25 15:33N 51°20' E 003°49'0 0.0
2015-May-25 14:33N 51°20' E 003°49'0 0.0
2015-May-25 13:33N 51°20' E 003°49'0 0.0
2015-May-25 12:33N 51°20' E 003°49'0 0.0
2015-May-25 11:33N 51°20' E 003°49'0 0.0
2015-May-25 10:33N 51°20' E 003°49'0 0.0
2015-May-25 09:33N 51°20' E 003°49'0 0.0
2015-May-25 08:33N 51°20' E 003°49'0 0.0
2015-May-25 07:33N 51°20' E 003°49'0 0.0
2015-May-25 06:33N 51°20' E 003°49'0 0.0
2015-May-25 05:33N 51°20' E 003°49'0 0.0
2015-May-25 04:33N 51°20' E 003°49'0 0.0
2015-May-25 03:33N 51°20' E 003°49'0 0.0
2015-May-25 02:33N 51°20' E 003°49'0 0.0
2015-May-25 01:33N 51°20' E 003°49'0 0.0
2015-May-25 00:33N 51°20' E 003°49'0 0.0
2015-May-24 23:33N 51°20' E 003°49'0 0.0
2015-May-24 22:33N 51°20' E 003°49'0 0.0
2015-May-24 21:33N 51°20' E 003°49'4 3.5
2015-May-24 20:33N 51°22' E 003°44'4 3.5
2015-May-24 19:33N 51°20' E 003°49'0 0.0
2015-May-24 18:33N 51°20' E 003°49'0 0.0
2015-May-24 17:33N 51°20' E 003°49'0 0.0
2015-May-24 16:33N 51°20' E 003°49'0 0.4
2015-May-24 15:34N 51°21' E 003°49'0 0.4
2015-May-24 14:33N 51°20' E 003°49'0 0.0
2015-May-24 13:33N 51°20' E 003°49'0 0.0
2015-May-24 12:33N 51°20' E 003°49'0 0.0
2015-May-24 11:33N 51°20' E 003°49'0 0.0
2015-May-24 10:33N 51°20' E 003°49'0 0.0
2015-May-24 09:33N 51°20' E 003°49'0 0.0
2015-May-24 08:33N 51°20' E 003°49'0 0.0
2015-May-24 07:33N 51°20' E 003°49'0 0.0
2015-May-24 06:33N 51°20' E 003°49'0 0.0
2015-May-24 05:33N 51°20' E 003°49'0 0.0
2015-May-24 04:33N 51°20' E 003°49'0 0.0
2015-May-24 03:33N 51°20' E 003°49'0 0.0
2015-May-24 02:33N 51°20' E 003°49'0 0.0
2015-May-24 01:33N 51°20' E 003°49'0 0.0
2015-May-24 00:33N 51°20' E 003°49'0 0.0
2015-May-23 23:33N 51°20' E 003°49'0 0.0
2015-May-23 22:33N 51°20' E 003°49'0 0.0
2015-May-23 21:33N 51°20' E 003°49'0 0.0
2015-May-23 20:33N 51°20' E 003°49'0 0.0
2015-May-23 19:33N 51°20' E 003°49'0 0.0
2015-May-23 18:33N 51°20' E 003°49'0 0.0
2015-May-23 17:33N 51°20' E 003°49'0 0.0
2015-May-23 16:33N 51°20' E 003°49'0 0.0
2015-May-23 15:33N 51°20' E 003°49'0 0.0
2015-May-23 14:33N 51°20' E 003°49'0 0.0
2015-May-23 13:33N 51°20' E 003°49'0 0.0
2015-May-23 12:33N 51°20' E 003°49'0 0.0
2015-May-23 11:33N 51°20' E 003°49'0 0.0
2015-May-23 10:33N 51°20' E 003°49'0 0.0
2015-May-23 09:33N 51°20' E 003°49'0 0.0
2015-May-23 08:33N 51°20' E 003°49'0 0.0
2015-May-23 07:33N 51°20' E 003°49'0 0.0
2015-May-23 06:33N 51°20' E 003°49'0 0.0
2015-May-23 05:33N 51°20' E 003°49'1 1.1
2015-May-23 04:33N 51°21' E 003°48'1 0.6
2015-May-23 03:34N 51°21' E 003°49'1 0.7
2015-May-23 02:33N 51°20' E 003°49'0 0.0
2015-May-23 01:33N 51°20' E 003°49'0 0.0
2015-May-23 00:33N 51°20' E 003°49'0 0.0
2015-May-22 23:33N 51°20' E 003°49'0 0.0
2015-May-22 22:33N 51°20' E 003°49'0 0.0
2015-May-22 21:33N 51°20' E 003°49'2 1.8
2015-May-22 20:33N 51°21' E 003°46'1 1.4
2015-May-22 19:33N 51°22' E 003°45'3 3.1
2015-May-22 18:33N 51°20' E 003°49'0 0.0
2015-May-22 17:33N 51°20' E 003°49'0 0.0
2015-May-22 16:33N 51°20' E 003°49'0 0.0
2015-May-22 15:33N 51°20' E 003°49'4 3.9
2015-May-22 14:33N 51°22' E 003°44'2 1.5
2015-May-22 13:33N 51°21' E 003°45'1 1.2
2015-May-22 12:34N 51°22' E 003°44'0 0.3
2015-May-22 11:34N 51°22' E 003°44'3 3.4
2015-May-22 10:33N 51°20' E 003°49'0 0.0
2015-May-22 09:33N 51°20' E 003°49'4 3.8
2015-May-22 08:34N 51°22' E 003°44'4 3.7
2015-May-22 07:33N 51°20' E 003°49'0 0.0
2015-May-22 06:33N 51°20' E 003°49'0 0.0
2015-May-22 05:33N 51°20' E 003°49'0 0.0
2015-May-22 04:33N 51°20' E 003°49'0 0.0
2015-May-22 03:33N 51°20' E 003°49'0 0.0
2015-May-22 02:33N 51°20' E 003°49'0 0.0
2015-May-22 01:33N 51°20' E 003°49'0 0.0
2015-May-22 00:33N 51°20' E 003°49'0 0.0
2015-May-21 23:33N 51°20' E 003°49'0 0.0
2015-May-21 22:33N 51°20' E 003°49'0 0.0
2015-May-21 21:33N 51°20' E 003°49'0 0.0
2015-May-21 20:33N 51°20' E 003°49'0 0.0
2015-May-21 19:33N 51°20' E 003°49'0 0.0
2015-May-21 18:33N 51°20' E 003°49'0 0.0
2015-May-21 17:33N 51°20' E 003°49'0 0.0
2015-May-21 16:33N 51°20' E 003°49'0 0.0
2015-May-21 15:33N 51°20' E 003°49'0 0.0
2015-May-21 14:33N 51°20' E 003°49'0 0.0
2015-May-21 13:33N 51°20' E 003°49'0 0.0
2015-May-21 12:33N 51°20' E 003°49'0 0.0
2015-May-21 11:33N 51°20' E 003°49'0 0.0
2015-May-21 10:33N 51°20' E 003°49'0 0.0
2015-May-21 09:33N 51°20' E 003°49'0 0.0
2015-May-21 08:33N 51°20' E 003°49'0 0.0
2015-May-21 07:33N 51°20' E 003°49'0 0.0
2015-May-21 06:33N 51°20' E 003°49'0 0.0
2015-May-21 05:33N 51°20' E 003°49'0 0.0
2015-May-21 04:33N 51°20' E 003°49'0 0.0
2015-May-21 03:33N 51°20' E 003°49'0 0.0
2015-May-21 02:33N 51°20' E 003°49'0 0.0
2015-May-21 01:33N 51°20' E 003°49'0 0.0
2015-May-21 00:33N 51°20' E 003°49'0 0.0
2015-May-20 23:33N 51°20' E 003°49'0 0.0
2015-May-20 22:33N 51°20' E 003°49'0 0.0
2015-May-20 21:33N 51°20' E 003°49'0 0.0
2015-May-20 20:33N 51°20' E 003°49'  
Track history (hours):
 
Tides and Currents Weather Stations Pressure Air Temp Water Temp Dewpoint Dewpoint Depression Visibility Wind Speed Wind Dir Waves Ship Positions

Smitwijs London

Last reported at 2015-May-30 20:33 UTC. Time now 2015-May-30 20:43 UTC.
Position N 51°20' E 003°49'.

Length 75 m; beam 16 m.

Type: Tug. MMSI: 244098956.

Date/timePositionNaut miles runAvg speedWind from/ knotsBaromVisibWave heightAir tempDewpointWater temp
2015-May-30 20:33N 51°20' E 003°49'0 0.0
2015-May-30 19:33N 51°20' E 003°49'0 0.0
2015-May-30 18:33N 51°20' E 003°49'0 0.0
2015-May-30 17:33N 51°20' E 003°49'0 0.0
2015-May-30 16:33N 51°20' E 003°49'0 0.0
2015-May-30 15:33N 51°20' E 003°49'0 0.0
2015-May-30 14:33N 51°20' E 003°49'0 0.0
2015-May-30 13:33N 51°20' E 003°49'2 2.5
2015-May-30 12:33N 51°18' E 003°50'7 6.6
2015-May-30 11:33N 51°11' E 003°48'1 0.6
2015-May-30 10:34N 51°11' E 003°48'6 6.2
2015-May-30 09:33N 51°17' E 003°50'3 3.0
2015-May-30 08:32N 51°20' E 003°49'3 2.9
2015-May-30 07:33N 51°22' E 003°46'2 2.5
2015-May-30 06:33N 51°20' E 003°49'0 0.0
2015-May-30 05:33N 51°20' E 003°49'0 0.0
2015-May-30 04:33N 51°20' E 003°49'0 0.0
2015-May-30 03:33N 51°20' E 003°49'0 0.0
2015-May-30 02:33N 51°20' E 003°49'0 0.0
2015-May-30 01:33N 51°20' E 003°49'0 0.0
2015-May-30 00:33N 51°20' E 003°49'0 0.0
2015-May-29 23:33N 51°20' E 003°49'0 0.0
2015-May-29 22:33N 51°20' E 003°49'0 0.0
2015-May-29 21:33N 51°20' E 003°49'0 0.0
2015-May-29 20:33N 51°20' E 003°49'0 0.0
2015-May-29 19:32N 51°20' E 003°49'0 0.0
2015-May-29 18:33N 51°20' E 003°49'0 0.0
2015-May-29 17:33N 51°20' E 003°49'0 0.0
2015-May-29 16:33N 51°20' E 003°49'0 0.0
2015-May-29 15:33N 51°20' E 003°49'1 0.5
2015-May-29 14:31N 51°20' E 003°49'0 0.2
2015-May-29 13:33N 51°20' E 003°49'4 4.5
2015-May-29 12:34N 51°15' E 003°50'9 8.9
2015-May-29 11:33N 51°07' E 003°45'1 1.1
2015-May-29 10:33N 51°06' E 003°44'2 1.6
2015-May-29 09:33N 51°07' E 003°45'5 4.5
2015-May-29 08:33N 51°11' E 003°48'7 6.5
2015-May-29 07:33N 51°18' E 003°50'2 2.4
2015-May-29 06:33N 51°20' E 003°49'5 5.1
2015-May-29 05:33N 51°23' E 003°43'4 4.5
2015-May-29 04:33N 51°28' E 003°41'0 0.1
2015-May-29 03:33N 51°28' E 003°40'0 0.0
2015-May-29 02:33N 51°28' E 003°40'0 0.0
2015-May-29 01:33N 51°28' E 003°40'0 0.0
2015-May-29 00:33N 51°28' E 003°40'0 0.0
2015-May-28 23:33N 51°28' E 003°40'0 0.0
2015-May-28 22:33N 51°28' E 003°40'0 0.0
2015-May-28 21:33N 51°28' E 003°40'1 1.1
2015-May-28 20:33N 51°27' E 003°42'0 0.2
2015-May-28 19:33N 51°27' E 003°42'1 0.9
2015-May-28 18:33N 51°28' E 003°40'0 0.0
2015-May-28 17:33N 51°28' E 003°40'0 0.0
2015-May-28 16:33N 51°28' E 003°40'0 0.0
2015-May-28 15:33N 51°28' E 003°40'0 0.0
2015-May-28 14:33N 51°28' E 003°40'0 0.0
2015-May-28 13:33N 51°28' E 003°40'0 0.0
2015-May-28 12:33N 51°28' E 003°40'0 0.0
2015-May-28 11:33N 51°28' E 003°40'0 0.0
2015-May-28 10:33N 51°28' E 003°40'0 0.0
2015-May-28 09:33N 51°28' E 003°40'0 0.0
2015-May-28 08:33N 51°28' E 003°40'0 0.0
2015-May-28 07:33N 51°28' E 003°40'0 0.0
2015-May-28 06:33N 51°28' E 003°40'1 1.4
2015-May-28 05:33N 51°29' E 003°42'1 1.4
2015-May-28 04:33N 51°28' E 003°40'0 0.0
2015-May-28 03:33N 51°28' E 003°40'0 0.0
2015-May-28 02:33N 51°28' E 003°40'0 0.0
2015-May-28 01:33N 51°28' E 003°40'0 0.0
2015-May-28 00:33N 51°28' E 003°40'0 0.0
2015-May-27 23:33N 51°28' E 003°40'0 0.0
2015-May-27 22:33N 51°28' E 003°40'0 0.0
2015-May-27 21:33N 51°28' E 003°40'0 0.0
2015-May-27 20:33N 51°28' E 003°40'0 0.0
2015-May-27 19:33N 51°28' E 003°40'0 0.0
2015-May-27 18:33N 51°28' E 003°40'0 0.0
2015-May-27 17:33N 51°28' E 003°40'6 6.0
2015-May-27 16:33N 51°28' E 003°31'2 2.3
2015-May-27 15:33N 51°30' E 003°29'5 5.5
2015-May-27 14:33N 51°26' E 003°35'5 5.2
2015-May-27 13:33N 51°28' E 003°43'1 1.0
2015-May-27 12:33N 51°28' E 003°41'1 0.6
2015-May-27 11:33N 51°28' E 003°40'0 0.0
2015-May-27 10:33N 51°28' E 003°40'0 0.0
2015-May-27 09:33N 51°28' E 003°40'0 0.0
2015-May-27 08:33N 51°28' E 003°40'0 0.0
2015-May-27 07:33N 51°28' E 003°40'0 0.0
2015-May-27 06:33N 51°28' E 003°40'0 0.0
2015-May-27 05:33N 51°28' E 003°40'0 0.0
2015-May-27 04:33N 51°28' E 003°40'0 0.0
2015-May-27 03:33N 51°28' E 003°40'0 0.0
2015-May-27 02:33N 51°28' E 003°40'0 0.0
2015-May-27 01:33N 51°28' E 003°40'0 0.0
2015-May-27 00:33N 51°28' E 003°40'0 0.0
2015-May-26 23:33N 51°28' E 003°40'2 1.5
2015-May-26 22:34N 51°29' E 003°42'3 3.1
2015-May-26 21:33N 51°26' E 003°39'2 1.6
2015-May-26 20:33N 51°28' E 003°40'1 1.5
2015-May-26 19:33N 51°27' E 003°42'3 2.9
2015-May-26 18:33N 51°24' E 003°43'6 5.9
2015-May-26 17:33N 51°21' E 003°51'1 0.6
2015-May-26 16:32N 51°21' E 003°52'2 1.9
2015-May-26 15:33N 51°20' E 003°49'0 0.0
2015-May-26 14:33N 51°20' E 003°49'0 0.0
2015-May-26 13:33N 51°20' E 003°49'0 0.0
2015-May-26 12:33N 51°20' E 003°49'0 0.0
2015-May-26 11:33N 51°20' E 003°49'0 0.0
2015-May-26 10:33N 51°20' E 003°49'2 1.8
2015-May-26 09:34N 51°21' E 003°52'1 0.5
2015-May-26 08:33N 51°20' E 003°51'1 1.4
2015-May-26 07:33N 51°20' E 003°49'1 1.2
2015-May-26 06:33N 51°19' E 003°50'2 1.6
2015-May-26 05:33N 51°20' E 003°49'0 0.0
2015-May-26 04:33N 51°20' E 003°49'0 0.0
2015-May-26 03:33N 51°20' E 003°49'0 0.0
2015-May-26 02:33N 51°20' E 003°49'0 0.0
2015-May-26 01:33N 51°20' E 003°49'0 0.0
2015-May-26 00:33N 51°20' E 003°49'0 0.0
2015-May-25 23:33N 51°20' E 003°49'0 0.0
2015-May-25 22:33N 51°20' E 003°49'0 0.0
2015-May-25 21:33N 51°20' E 003°49'0 0.0
2015-May-25 20:33N 51°20' E 003°49'0 0.0
2015-May-25 19:33N 51°20' E 003°49'0 0.0
2015-May-25 18:33N 51°20' E 003°49'0 0.0
2015-May-25 17:33N 51°20' E 003°49'0 0.0
2015-May-25 16:33N 51°20' E 003°49'0 0.0
2015-May-25 15:33N 51°20' E 003°49'0 0.0
2015-May-25 14:33N 51°20' E 003°49'0 0.0
2015-May-25 13:33N 51°20' E 003°49'0 0.0
2015-May-25 12:33N 51°20' E 003°49'0 0.0
2015-May-25 11:33N 51°20' E 003°49'0 0.0
2015-May-25 10:33N 51°20' E 003°49'0 0.0
2015-May-25 09:33N 51°20' E 003°49'0 0.0
2015-May-25 08:33N 51°20' E 003°49'0 0.0
2015-May-25 07:33N 51°20' E 003°49'0 0.0
2015-May-25 06:33N 51°20' E 003°49'0 0.0
2015-May-25 05:33N 51°20' E 003°49'0 0.0
2015-May-25 04:33N 51°20' E 003°49'0 0.0
2015-May-25 03:33N 51°20' E 003°49'0 0.0
2015-May-25 02:33N 51°20' E 003°49'0 0.0
2015-May-25 01:33N 51°20' E 003°49'0 0.0
2015-May-25 00:33N 51°20' E 003°49'0 0.0
2015-May-24 23:33N 51°20' E 003°49'0 0.0
2015-May-24 22:33N 51°20' E 003°49'0 0.0
2015-May-24 21:33N 51°20' E 003°49'4 3.5
2015-May-24 20:33N 51°22' E 003°44'4 3.5
2015-May-24 19:33N 51°20' E 003°49'0 0.0
2015-May-24 18:33N 51°20' E 003°49'0 0.0
2015-May-24 17:33N 51°20' E 003°49'0 0.0
2015-May-24 16:33N 51°20' E 003°49'0 0.4
2015-May-24 15:34N 51°21' E 003°49'0 0.4
2015-May-24 14:33N 51°20' E 003°49'0 0.0
2015-May-24 13:33N 51°20' E 003°49'0 0.0
2015-May-24 12:33N 51°20' E 003°49'0 0.0
2015-May-24 11:33N 51°20' E 003°49'0 0.0
2015-May-24 10:33N 51°20' E 003°49'0 0.0
2015-May-24 09:33N 51°20' E 003°49'0 0.0
2015-May-24 08:33N 51°20' E 003°49'0 0.0
2015-May-24 07:33N 51°20' E 003°49'0 0.0
2015-May-24 06:33N 51°20' E 003°49'0 0.0
2015-May-24 05:33N 51°20' E 003°49'0 0.0
2015-May-24 04:33N 51°20' E 003°49'0 0.0
2015-May-24 03:33N 51°20' E 003°49'0 0.0
2015-May-24 02:33N 51°20' E 003°49'0 0.0
2015-May-24 01:33N 51°20' E 003°49'0 0.0
2015-May-24 00:33N 51°20' E 003°49'0 0.0
2015-May-23 23:33N 51°20' E 003°49'0 0.0
2015-May-23 22:33N 51°20' E 003°49'0 0.0
2015-May-23 21:33N 51°20' E 003°49'0 0.0
2015-May-23 20:33N 51°20' E 003°49'0 0.0
2015-May-23 19:33N 51°20' E 003°49'0 0.0
2015-May-23 18:33N 51°20' E 003°49'0 0.0
2015-May-23 17:33N 51°20' E 003°49'0 0.0
2015-May-23 16:33N 51°20' E 003°49'0 0.0
2015-May-23 15:33N 51°20' E 003°49'0 0.0
2015-May-23 14:33N 51°20' E 003°49'0 0.0
2015-May-23 13:33N 51°20' E 003°49'0 0.0
2015-May-23 12:33N 51°20' E 003°49'0 0.0
2015-May-23 11:33N 51°20' E 003°49'0 0.0
2015-May-23 10:33N 51°20' E 003°49'0 0.0
2015-May-23 09:33N 51°20' E 003°49'0 0.0
2015-May-23 08:33N 51°20' E 003°49'0 0.0
2015-May-23 07:33N 51°20' E 003°49'0 0.0
2015-May-23 06:33N 51°20' E 003°49'0 0.0
2015-May-23 05:33N 51°20' E 003°49'1 1.1
2015-May-23 04:33N 51°21' E 003°48'1 0.6
2015-May-23 03:34N 51°21' E 003°49'1 0.7
2015-May-23 02:33N 51°20' E 003°49'0 0.0
2015-May-23 01:33N 51°20' E 003°49'0 0.0
2015-May-23 00:33N 51°20' E 003°49'0 0.0
2015-May-22 23:33N 51°20' E 003°49'0 0.0
2015-May-22 22:33N 51°20' E 003°49'0 0.0
2015-May-22 21:33N 51°20' E 003°49'2 1.8
2015-May-22 20:33N 51°21' E 003°46'1 1.4
2015-May-22 19:33N 51°22' E 003°45'3 3.1
2015-May-22 18:33N 51°20' E 003°49'0 0.0
2015-May-22 17:33N 51°20' E 003°49'0 0.0
2015-May-22 16:33N 51°20' E 003°49'0 0.0
2015-May-22 15:33N 51°20' E 003°49'4 3.9
2015-May-22 14:33N 51°22' E 003°44'2 1.5
2015-May-22 13:33N 51°21' E 003°45'1 1.2
2015-May-22 12:34N 51°22' E 003°44'0 0.3
2015-May-22 11:34N 51°22' E 003°44'3 3.4
2015-May-22 10:33N 51°20' E 003°49'0 0.0
2015-May-22 09:33N 51°20' E 003°49'4 3.8
2015-May-22 08:34N 51°22' E 003°44'4 3.7
2015-May-22 07:33N 51°20' E 003°49'0 0.0
2015-May-22 06:33N 51°20' E 003°49'0 0.0
2015-May-22 05:33N 51°20' E 003°49'0 0.0
2015-May-22 04:33N 51°20' E 003°49'0 0.0
2015-May-22 03:33N 51°20' E 003°49'0 0.0
2015-May-22 02:33N 51°20' E 003°49'0 0.0
2015-May-22 01:33N 51°20' E 003°49'0 0.0
2015-May-22 00:33N 51°20' E 003°49'0 0.0
2015-May-21 23:33N 51°20' E 003°49'0 0.0
2015-May-21 22:33N 51°20' E 003°49'0 0.0
2015-May-21 21:33N 51°20' E 003°49'0 0.0
2015-May-21 20:33N 51°20' E 003°49'0 0.0
2015-May-21 19:33N 51°20' E 003°49'0 0.0
2015-May-21 18:33N 51°20' E 003°49'0 0.0
2015-May-21 17:33N 51°20' E 003°49'0 0.0
2015-May-21 16:33N 51°20' E 003°49'0 0.0
2015-May-21 15:33N 51°20' E 003°49'0 0.0
2015-May-21 14:33N 51°20' E 003°49'0 0.0
2015-May-21 13:33N 51°20' E 003°49'0 0.0
2015-May-21 12:33N 51°20' E 003°49'0 0.0
2015-May-21 11:33N 51°20' E 003°49'0 0.0
2015-May-21 10:33N 51°20' E 003°49'0 0.0
2015-May-21 09:33N 51°20' E 003°49'0 0.0
2015-May-21 08:33N 51°20' E 003°49'0 0.0
2015-May-21 07:33N 51°20' E 003°49'0 0.0
2015-May-21 06:33N 51°20' E 003°49'0 0.0
2015-May-21 05:33N 51°20' E 003°49'0 0.0
2015-May-21 04:33N 51°20' E 003°49'0 0.0
2015-May-21 03:33N 51°20' E 003°49'0 0.0
2015-May-21 02:33N 51°20' E 003°49'0 0.0
2015-May-21 01:33N 51°20' E 003°49'0 0.0
2015-May-21 00:33N 51°20' E 003°49'0 0.0
2015-May-20 23:33N 51°20' E 003°49'0 0.0
2015-May-20 22:33N 51°20' E 003°49'0 0.0
2015-May-20 21:33N 51°20' E 003°49'0 0.0
2015-May-20 20:33N 51°20' E 003°49'  

Dump ship's entire track history